createdAt,value
2018-01-20T00:00:50.513Z,44.42
2018-01-20T00:03:22.654Z,44.36
2018-01-20T00:05:51.134Z,44.49
2018-01-20T00:08:19.118Z,44.51
2018-01-20T00:10:59.155Z,44.58
2018-01-20T00:13:27.406Z,44.38
2018-01-20T00:15:55.430Z,44.39
2018-01-20T00:18:23.473Z,44.39
2018-01-20T00:20:55.761Z,44.42
2018-01-20T00:23:26.172Z,44.34
2018-01-20T00:26:01.723Z,44.37
2018-01-20T00:28:29.884Z,44.40
2018-01-20T00:30:57.963Z,44.35
2018-01-20T00:33:25.978Z,44.39
2018-01-20T00:35:56.220Z,44.31
2018-01-20T00:38:24.408Z,44.34
2018-01-20T00:40:52.299Z,44.34
2018-01-20T00:43:22.524Z,44.33
2018-01-20T00:45:50.734Z,44.28
2018-01-20T00:48:18.721Z,44.31
2018-01-20T00:50:46.987Z,44.36
2018-01-20T00:53:14.977Z,44.36
2018-01-20T00:55:42.917Z,44.33
2018-01-20T00:58:11.009Z,44.32
2018-01-20T01:00:39.202Z,44.32
2018-01-20T01:03:07.139Z,44.33
2018-01-20T01:05:35.305Z,44.27
2018-01-20T01:08:03.298Z,44.32
2018-01-20T01:10:31.362Z,44.30
2018-01-20T01:12:59.550Z,44.22
2018-01-20T01:15:27.493Z,44.37
2018-01-20T01:17:55.708Z,44.37
2018-01-20T01:20:23.881Z,44.22
2018-01-20T01:22:51.815Z,44.24
2018-01-20T01:25:19.727Z,44.33
2018-01-20T01:27:47.997Z,44.34
2018-01-20T01:30:18.327Z,44.32
2018-01-20T01:32:46.384Z,44.31
2018-01-20T01:35:14.640Z,44.40
2018-01-20T01:37:42.584Z,44.57
2018-01-20T01:40:13.369Z,44.49
2018-01-20T01:42:41.289Z,44.42
2018-01-20T01:45:09.254Z,44.42
2018-01-20T01:47:37.319Z,44.49
2018-01-20T01:50:07.235Z,44.49
2018-01-20T01:52:35.559Z,44.33
2018-01-20T01:55:11.100Z,44.29
2018-01-20T01:57:39.381Z,44.34
2018-01-20T02:00:07.522Z,44.35
2018-01-20T02:02:35.829Z,44.30
2018-01-20T02:05:03.678Z,44.33
2018-01-20T02:07:31.972Z,44.28
2018-01-20T02:09:59.935Z,44.28
2018-01-20T02:12:32.414Z,44.27
2018-01-20T02:15:00.339Z,44.21
2018-01-20T02:17:30.407Z,44.15
2018-01-20T02:19:58.379Z,44.22
2018-01-20T02:22:26.550Z,44.19
2018-01-20T02:24:54.800Z,44.11
2018-01-20T02:27:22.793Z,44.09
2018-01-20T02:29:50.842Z,44.06
2018-01-20T02:32:19.132Z,44.07
2018-01-20T02:34:47.389Z,44.14
2018-01-20T02:37:15.330Z,44.12
2018-01-20T02:39:43.419Z,44.16
2018-01-20T02:42:11.614Z,44.17
2018-01-20T02:44:39.326Z,44.18
2018-01-20T02:47:07.317Z,44.16
2018-01-20T02:49:41.058Z,44.10
2018-01-20T02:52:08.923Z,44.05
2018-01-20T02:54:36.992Z,44.06
2018-01-20T02:57:05.233Z,44.05
2018-01-20T02:59:33.456Z,44.20
2018-01-20T03:02:01.821Z,44.45
2018-01-20T03:04:29.700Z,44.34
2018-01-20T03:06:57.715Z,44.24
2018-01-20T03:09:25.934Z,44.17
2018-01-20T03:11:54.103Z,44.06
2018-01-20T03:14:22.062Z,44.06
2018-01-20T03:16:50.053Z,44.18
2018-01-20T03:19:20.242Z,44.31
2018-01-20T03:21:48.409Z,44.24
2018-01-20T03:24:16.373Z,44.13
2018-01-20T03:26:44.564Z,44.19
2018-01-20T03:29:14.602Z,44.21
2018-01-20T03:31:42.720Z,44.20
2018-01-20T03:34:12.903Z,44.10
2018-01-20T03:36:41.152Z,44.18
2018-01-20T03:39:11.187Z,44.21
2018-01-20T03:41:39.382Z,44.25
2018-01-20T03:44:07.502Z,44.35
2018-01-20T03:46:35.471Z,44.40
2018-01-20T03:49:03.767Z,44.42
2018-01-20T03:51:35.844Z,44.24
2018-01-20T03:54:03.960Z,44.16
2018-01-20T03:56:31.717Z,44.19
2018-01-20T03:58:59.359Z,44.30
2018-01-20T04:01:27.356Z,44.25
2018-01-20T04:03:55.422Z,44.25
2018-01-20T04:06:23.512Z,44.29
2018-01-20T04:08:51.477Z,44.21
2018-01-20T04:11:19.670Z,44.11
2018-01-20T04:13:47.709Z,44.23
2018-01-20T04:16:15.699Z,44.27
2018-01-20T04:18:43.996Z,44.28
2018-01-20T04:21:14.222Z,44.31
2018-01-20T04:23:42.094Z,44.25
2018-01-20T04:26:10.245Z,44.31
2018-01-20T04:28:38.329Z,44.32
2018-01-20T04:31:06.392Z,44.28
2018-01-20T04:33:34.457Z,44.28
2018-01-20T04:36:02.498Z,44.27
2018-01-20T04:38:34.793Z,44.23
2018-01-20T04:41:02.981Z,44.28
2018-01-20T04:43:31.018Z,44.31
2018-01-20T04:45:58.983Z,44.31
2018-01-20T04:48:27.299Z,44.46
2018-01-20T04:50:57.350Z,44.29
2018-01-20T04:53:25.356Z,44.17
2018-01-20T04:55:53.547Z,44.12
2018-01-20T04:58:21.487Z,44.17
2018-01-20T05:00:51.693Z,44.16
2018-01-20T05:03:19.920Z,44.10
2018-01-20T05:05:48.406Z,44.08
2018-01-20T05:08:16.483Z,44.07
2018-01-20T05:10:44.236Z,44.12
2018-01-20T05:13:11.931Z,44.18
2018-01-20T05:15:39.871Z,44.18
2018-01-20T05:18:08.013Z,44.18
2018-01-20T05:20:36.012Z,44.21
2018-01-20T05:23:06.135Z,44.24
2018-01-20T05:25:34.283Z,44.32
2018-01-20T05:28:04.523Z,44.29
2018-01-20T05:30:32.802Z,44.36
2018-01-20T05:33:01.181Z,44.44
2018-01-20T05:35:29.554Z,44.27
2018-01-20T05:37:57.820Z,44.16
2018-01-20T05:40:25.774Z,44.11
2018-01-20T05:42:54.080Z,44.12
2018-01-20T05:45:24.055Z,44.25
2018-01-20T05:47:51.821Z,44.21
2018-01-20T05:50:21.984Z,44.07
2018-01-20T05:52:54.101Z,44.23
2018-01-20T05:55:24.494Z,44.11
2018-01-20T05:57:52.795Z,44.21
2018-01-20T06:00:26.785Z,44.71
2018-01-20T06:02:54.815Z,44.64
2018-01-20T06:05:25.039Z,44.82
2018-01-20T06:07:53.194Z,44.59
2018-01-20T06:10:21.162Z,43.88
2018-01-20T06:12:49.426Z,44.24
2018-01-20T06:15:17.734Z,43.79
2018-01-20T06:17:52.463Z,43.69
2018-01-20T06:20:20.472Z,43.73
2018-01-20T06:22:48.568Z,43.70
2018-01-20T06:25:16.496Z,43.40
2018-01-20T06:27:45.463Z,43.42
2018-01-20T06:30:15.510Z,43.64
2018-01-20T06:32:45.918Z,44.04
2018-01-20T06:35:14.329Z,43.65
2018-01-20T06:37:42.404Z,44.14
2018-01-20T06:40:10.497Z,44.35
2018-01-20T06:42:38.991Z,44.65
2018-01-20T06:45:07.804Z,44.86
2018-01-20T06:47:36.788Z,44.84
2018-01-20T06:50:04.668Z,44.64
2018-01-20T06:52:33.023Z,44.54
2018-01-20T06:55:02.843Z,44.82
2018-01-20T06:57:30.979Z,44.50
2018-01-20T06:59:59.203Z,44.22
2018-01-20T07:02:29.312Z,44.61
2018-01-20T07:04:57.677Z,44.86
2018-01-20T07:07:25.941Z,44.84
2018-01-20T07:09:55.958Z,44.92
2018-01-20T07:12:27.849Z,44.87
2018-01-20T07:14:59.698Z,44.82
2018-01-20T07:17:27.528Z,44.65
2018-01-20T07:19:56.148Z,44.80
2018-01-20T07:22:24.526Z,45.13
2018-01-20T07:24:52.523Z,45.07
2018-01-20T07:27:20.975Z,45.08
2018-01-20T07:29:49.722Z,45.05
2018-01-20T07:32:17.796Z,44.99
2018-01-20T07:34:45.987Z,44.94
2018-01-20T07:37:13.951Z,44.79
2018-01-20T07:39:42.892Z,44.96
2018-01-20T07:42:11.008Z,44.60
2018-01-20T07:44:39.374Z,44.69
2018-01-20T07:47:08.308Z,44.56
2018-01-20T07:49:36.755Z,44.51
2018-01-20T07:52:04.465Z,45.03
2018-01-20T07:54:33.132Z,45.03
2018-01-20T07:57:07.028Z,45.15
2018-01-20T07:59:41.982Z,45.00
2018-01-20T08:02:10.106Z,45.00
2018-01-20T08:04:38.072Z,45.22
2018-01-20T08:07:08.033Z,45.51
2018-01-20T08:09:35.693Z,45.67
2018-01-20T08:12:03.819Z,45.69
2018-01-20T08:14:32.035Z,46.02
2018-01-20T08:17:00.033Z,45.95
2018-01-20T08:19:30.123Z,45.65
2018-01-20T08:21:58.389Z,45.41
2018-01-20T08:24:26.471Z,45.52
2018-01-20T08:26:54.538Z,45.41
2018-01-20T08:29:22.526Z,45.52
2018-01-20T08:31:50.543Z,45.26
2018-01-20T08:34:20.709Z,45.13
2018-01-20T08:36:50.933Z,44.56
2018-01-20T08:39:19.304Z,44.19
2018-01-20T08:41:49.535Z,43.84
2018-01-20T08:44:17.907Z,43.83
2018-01-20T08:46:45.967Z,43.79
2018-01-20T08:49:13.959Z,43.84
2018-01-20T08:51:42.064Z,43.54
2018-01-20T08:54:11.016Z,43.52
2018-01-20T08:56:41.157Z,43.53
2018-01-20T08:59:09.264Z,43.59
2018-01-20T09:01:37.167Z,43.64
2018-01-20T09:04:05.294Z,43.69
2018-01-20T09:06:33.359Z,43.72
2018-01-20T09:09:01.550Z,43.73
2018-01-20T09:11:31.603Z,43.72
2018-01-20T09:13:59.369Z,43.79
2018-01-20T09:16:27.138Z,43.56
2018-01-20T09:18:55.394Z,43.54
2018-01-20T09:21:23.628Z,43.54
2018-01-20T09:23:53.603Z,43.71
2018-01-20T09:26:23.753Z,43.67
2018-01-20T09:28:53.013Z,43.55
2018-01-20T09:31:23.240Z,43.39
2018-01-20T09:33:51.054Z,43.35
2018-01-20T09:36:19.244Z,43.13
2018-01-20T09:38:51.186Z,43.11
2018-01-20T09:41:19.250Z,42.97
2018-01-20T09:43:51.271Z,43.02
2018-01-20T09:46:19.185Z,43.16
2018-01-20T09:48:51.411Z,43.30
2018-01-20T09:51:19.664Z,43.24
2018-01-20T09:53:47.727Z,43.23
2018-01-20T09:56:15.795Z,43.33
2018-01-20T09:58:45.961Z,43.47
2018-01-20T10:01:14.210Z,43.58
2018-01-20T10:03:42.583Z,43.65
2018-01-20T10:06:10.408Z,43.73
2018-01-20T10:08:38.621Z,43.86
2018-01-20T10:11:06.664Z,43.89
2018-01-20T10:13:38.873Z,43.97
2018-01-20T10:16:07.248Z,43.92
2018-01-20T10:18:37.468Z,43.85
2018-01-20T10:21:07.692Z,43.83
2018-01-20T10:23:37.708Z,43.89
2018-01-20T10:26:05.339Z,43.92
2018-01-20T10:28:34.120Z,43.86
2018-01-20T10:31:06.424Z,43.85
2018-01-20T10:33:34.253Z,43.90
2018-01-20T10:36:02.420Z,43.96
2018-01-20T10:38:30.384Z,44.01
2018-01-20T10:41:00.551Z,44.03
2018-01-20T10:43:28.920Z,44.04
2018-01-20T10:45:56.887Z,44.10
2018-01-20T10:48:25.061Z,44.08
2018-01-20T10:50:53.309Z,44.19
2018-01-20T10:53:22.300Z,44.20
2018-01-20T10:55:50.053Z,44.33
2018-01-20T10:58:18.267Z,44.35
2018-01-20T11:00:50.376Z,44.31
2018-01-20T11:03:18.588Z,44.28
2018-01-20T11:05:46.529Z,44.32
2018-01-20T11:08:14.851Z,44.09
2018-01-20T11:10:45.260Z,43.99
2018-01-20T11:13:13.759Z,43.77
2018-01-20T11:15:41.590Z,43.76
2018-01-20T11:18:09.790Z,43.65
2018-01-20T11:20:37.923Z,43.68
2018-01-20T11:23:06.964Z,43.52
2018-01-20T11:25:34.736Z,43.59
2018-01-20T11:28:02.619Z,43.77
2018-01-20T11:30:30.768Z,43.62
2018-01-20T11:32:58.900Z,43.56
2018-01-20T11:35:27.541Z,43.57
2018-01-20T11:37:55.553Z,43.68
2018-01-20T11:40:26.546Z,43.77
2018-01-20T11:42:56.753Z,43.70
2018-01-20T11:45:25.026Z,43.67
2018-01-20T11:47:53.840Z,43.90
2018-01-20T11:50:21.956Z,44.00
2018-01-20T11:52:52.125Z,43.89
2018-01-20T11:55:24.988Z,43.92
2018-01-20T11:57:53.163Z,43.86
2018-01-20T12:00:21.235Z,43.82
2018-01-20T12:02:49.922Z,43.88
2018-01-20T12:05:17.801Z,43.90
2018-01-20T12:07:45.916Z,43.97
2018-01-20T12:10:13.880Z,44.04
2018-01-20T12:12:44.121Z,43.80
2018-01-20T12:15:12.731Z,43.76
2018-01-20T12:17:41.478Z,43.92
2018-01-20T12:20:09.694Z,44.03
2018-01-20T12:22:37.860Z,43.91
2018-01-20T12:25:05.936Z,43.82
2018-01-20T12:27:36.114Z,43.95
2018-01-20T12:30:04.844Z,44.06
2018-01-20T12:32:40.907Z,44.16
2018-01-20T12:35:08.637Z,44.23
2018-01-20T12:37:37.311Z,44.30
2018-01-20T12:40:05.318Z,44.17
2018-01-20T12:42:33.260Z,44.07
2018-01-20T12:45:03.597Z,44.07
2018-01-20T12:47:31.438Z,44.06
2018-01-20T12:49:59.727Z,43.98
2018-01-20T12:52:27.769Z,44.01
2018-01-20T12:54:55.588Z,44.09
2018-01-20T12:57:23.951Z,44.13
2018-01-20T12:59:54.092Z,44.21
2018-01-20T13:02:22.269Z,44.19
2018-01-20T13:04:50.430Z,44.18
2018-01-20T13:07:18.662Z,44.25
2018-01-20T13:09:46.660Z,44.30
2018-01-20T13:12:15.918Z,44.37
2018-01-20T13:14:48.252Z,44.44
2018-01-20T13:17:17.159Z,44.45
2018-01-20T13:19:45.310Z,44.39
2018-01-20T13:22:17.389Z,44.39
2018-01-20T13:24:45.443Z,44.35
2018-01-20T13:27:16.446Z,44.29
2018-01-20T13:29:44.377Z,44.31
2018-01-20T13:32:13.143Z,44.38
2018-01-20T13:34:41.422Z,44.23
2018-01-20T13:37:09.790Z,44.14
2018-01-20T13:39:37.615Z,44.24
2018-01-20T13:42:05.251Z,44.27
2018-01-20T13:44:33.388Z,44.39
2018-01-20T13:47:05.808Z,44.39
2018-01-20T13:49:34.561Z,44.48
2018-01-20T13:52:03.405Z,44.40
2018-01-20T13:54:31.742Z,44.42
2018-01-20T13:57:01.126Z,44.46
2018-01-20T13:59:30.263Z,44.48
2018-01-20T14:02:01.378Z,44.51
2018-01-20T14:04:29.938Z,44.54
2018-01-20T14:06:58.719Z,44.58
2018-01-20T14:09:27.375Z,44.61
2018-01-20T14:11:58.515Z,44.67
2018-01-20T14:14:26.827Z,44.71
2018-01-20T14:16:54.608Z,44.73
2018-01-20T14:19:22.865Z,44.79
2018-01-20T14:21:50.830Z,44.81
2018-01-20T14:24:20.169Z,44.84
2018-01-20T14:26:48.411Z,44.82
2018-01-20T14:29:16.677Z,44.85
2018-01-20T14:31:44.615Z,44.82
2018-01-20T14:34:14.776Z,44.65
2018-01-20T14:36:43.296Z,44.70
2018-01-20T14:39:11.387Z,44.71
2018-01-20T14:41:41.578Z,44.76
2018-01-20T14:44:09.702Z,44.88
2018-01-20T14:46:40.108Z,44.94
2018-01-20T14:49:08.373Z,45.03
2018-01-20T14:51:36.314Z,45.19
2018-01-20T14:54:04.562Z,45.36
2018-01-20T14:56:36.635Z,45.39
2018-01-20T14:59:06.638Z,45.43
2018-01-20T15:01:35.601Z,45.50
2018-01-20T15:04:03.789Z,45.50
2018-01-20T15:06:31.767Z,45.55
2018-01-20T15:09:01.946Z,45.70
2018-01-20T15:11:30.198Z,45.72
2018-01-20T15:13:58.305Z,45.74
2018-01-20T15:16:26.293Z,45.75
2018-01-20T15:18:55.360Z,45.75
2018-01-20T15:21:23.530Z,45.77
2018-01-20T15:23:51.915Z,45.74
2018-01-20T15:26:20.245Z,45.90
2018-01-20T15:28:50.268Z,45.94
2018-01-20T15:31:18.386Z,45.92
2018-01-20T15:33:46.352Z,45.95
2018-01-20T15:36:16.393Z,45.93
2018-01-20T15:38:45.084Z,45.92
2018-01-20T15:41:13.024Z,45.93
2018-01-20T15:43:41.217Z,45.98
2018-01-20T15:46:14.335Z,46.11
2018-01-20T15:48:43.069Z,46.13
2018-01-20T15:51:12.320Z,46.12
2018-01-20T15:53:40.733Z,46.07
2018-01-20T15:56:08.716Z,46.08
2018-01-20T15:58:36.682Z,46.15
2018-01-20T16:01:06.140Z,46.15
2018-01-20T16:03:34.398Z,46.19
2018-01-20T16:06:06.272Z,46.22
2018-01-20T16:08:37.428Z,46.24
2018-01-20T16:11:08.308Z,46.21
2018-01-20T16:13:41.288Z,46.24
2018-01-20T16:16:09.609Z,46.27
2018-01-20T16:18:37.763Z,46.31
2018-01-20T16:21:05.921Z,46.33
2018-01-20T16:23:34.336Z,46.47
2018-01-20T16:26:06.548Z,46.45
2018-01-20T16:28:36.791Z,46.49
2018-01-20T16:31:05.108Z,46.48
2018-01-20T16:33:33.950Z,46.54
2018-01-20T16:36:02.618Z,46.54
2018-01-20T16:38:31.464Z,46.54
2018-01-20T16:40:59.534Z,46.58
2018-01-20T16:43:27.784Z,46.54
2018-01-20T16:46:00.957Z,46.51
2018-01-20T16:48:29.276Z,46.55
2018-01-20T16:51:00.017Z,46.56
2018-01-20T16:53:28.489Z,46.57
2018-01-20T16:55:58.729Z,46.52
2018-01-20T16:58:26.677Z,46.53
2018-01-20T17:00:55.463Z,46.49
2018-01-20T17:03:24.109Z,46.52
2018-01-20T17:05:52.898Z,46.56
2018-01-20T17:08:23.624Z,46.59
2018-01-20T17:10:51.633Z,46.69
2018-01-20T17:13:19.610Z,46.70
2018-01-20T17:15:50.735Z,46.70
2018-01-20T17:18:19.333Z,46.83
2018-01-20T17:20:50.499Z,46.78
2018-01-20T17:23:18.856Z,46.78
2018-01-20T17:25:46.825Z,46.82
2018-01-20T17:28:21.755Z,46.96
2018-01-20T17:30:49.588Z,46.97
2018-01-20T17:33:18.430Z,46.97
2018-01-20T17:35:46.856Z,47.07
2018-01-20T17:38:14.966Z,47.15
2018-01-20T17:40:47.140Z,47.36
2018-01-20T17:43:14.830Z,47.55
2018-01-20T17:45:42.869Z,47.72
2018-01-20T17:48:13.097Z,47.96
2018-01-20T17:50:42.082Z,48.15
2018-01-20T17:53:13.222Z,48.33
2018-01-20T17:55:41.059Z,48.49
2018-01-20T17:58:09.358Z,48.76
2018-01-20T18:00:42.660Z,48.90
2018-01-20T18:03:11.240Z,48.97
2018-01-20T18:05:38.999Z,49.19
2018-01-20T18:08:07.988Z,49.37
2018-01-20T18:10:37.086Z,49.36
2018-01-20T18:13:06.081Z,49.19
2018-01-20T18:15:38.152Z,49.38
2018-01-20T18:18:06.046Z,49.51
2018-01-20T18:20:34.140Z,49.85
2018-01-20T18:23:02.104Z,50.37
2018-01-20T18:25:31.049Z,50.82
2018-01-20T18:27:59.869Z,51.04
2018-01-20T18:30:29.946Z,51.19
2018-01-20T18:32:58.850Z,51.55
2018-01-20T18:35:28.865Z,51.76
2018-01-20T18:37:56.672Z,51.68
2018-01-20T18:40:24.865Z,51.61
2018-01-20T18:42:52.830Z,52.06
2018-01-20T18:45:21.018Z,52.09
2018-01-20T18:47:48.912Z,51.80
2018-01-20T18:50:17.159Z,52.04
2018-01-20T18:52:45.219Z,52.37
2018-01-20T18:55:13.182Z,51.43
2018-01-20T18:57:41.447Z,51.11
2018-01-20T19:00:11.723Z,51.43
2018-01-20T19:02:41.728Z,52.53
2018-01-20T19:05:09.668Z,52.15
2018-01-20T19:07:39.934Z,51.83
2018-01-20T19:10:09.100Z,52.15
2018-01-20T19:12:37.137Z,52.77
2018-01-20T19:15:05.829Z,52.80
2018-01-20T19:17:33.795Z,52.86
2018-01-20T19:20:07.220Z,52.77
2018-01-20T19:22:38.037Z,53.03
2018-01-20T19:25:05.765Z,53.09
2018-01-20T19:27:33.856Z,53.21
2018-01-20T19:30:06.184Z,53.29
2018-01-20T19:32:34.311Z,53.32
2018-01-20T19:35:04.453Z,53.26
2018-01-20T19:37:32.750Z,53.33
2018-01-20T19:40:01.130Z,53.20
2018-01-20T19:42:29.998Z,53.22
2018-01-20T19:44:57.975Z,53.70
2018-01-20T19:47:26.336Z,53.53
2018-01-20T19:49:54.397Z,53.05
2018-01-20T19:52:24.546Z,52.73
2018-01-20T19:54:52.504Z,52.86
2018-01-20T19:57:23.771Z,52.92
2018-01-20T19:59:51.782Z,52.42
2018-01-20T20:02:20.400Z,52.44
2018-01-20T20:04:49.203Z,52.89
2018-01-20T20:07:24.349Z,52.95
2018-01-20T20:09:52.415Z,53.01
2018-01-20T20:12:35.636Z,52.87
2018-01-20T20:15:24.596Z,52.57
2018-01-20T20:18:10.437Z,52.32
2018-01-20T20:20:53.717Z,52.53
2018-01-20T20:23:25.892Z,52.44
2018-01-20T20:26:00.282Z,52.49
2018-01-20T20:28:33.132Z,52.24
2018-01-20T20:31:02.073Z,51.97
2018-01-20T20:33:30.029Z,51.81
2018-01-20T20:35:58.268Z,51.53
2018-01-20T20:38:26.907Z,51.34
2018-01-20T20:40:55.450Z,51.24
2018-01-20T20:43:24.932Z,51.20
2018-01-20T20:45:53.981Z,51.31
2018-01-20T20:48:22.291Z,51.27
2018-01-20T20:50:53.105Z,51.22
2018-01-20T20:53:21.928Z,51.21
2018-01-20T20:55:50.518Z,51.12
2018-01-20T20:58:22.735Z,51.19
2018-01-20T21:00:50.904Z,51.22
2018-01-20T21:03:19.040Z,51.33
2018-01-20T21:05:47.230Z,51.35
2018-01-20T21:08:15.173Z,51.37
2018-01-20T21:10:43.361Z,51.48
2018-01-20T21:13:11.326Z,51.54
2018-01-20T21:15:39.551Z,51.40
2018-01-20T21:18:08.028Z,51.32
2018-01-20T21:20:38.247Z,51.33
2018-01-20T21:23:06.115Z,51.31
2018-01-20T21:25:36.265Z,51.18
2018-01-20T21:28:04.494Z,51.28
2018-01-20T21:30:32.561Z,51.16
2018-01-20T21:33:01.224Z,51.12
2018-01-20T21:35:29.424Z,51.10
2018-01-20T21:37:59.656Z,51.14
2018-01-20T21:40:27.470Z,51.55
2018-01-20T21:42:55.543Z,51.73
2018-01-20T21:45:23.742Z,51.87
2018-01-20T21:47:51.939Z,51.87
2018-01-20T21:50:20.923Z,51.71
2018-01-20T21:52:48.998Z,51.67
2018-01-20T21:55:17.372Z,51.55
2018-01-20T21:57:48.064Z,51.46
2018-01-20T22:00:15.980Z,51.46
2018-01-20T22:02:46.198Z,51.27
2018-01-20T22:05:16.476Z,51.40
2018-01-20T22:07:46.301Z,51.55
2018-01-20T22:10:16.288Z,51.62
2018-01-20T22:12:44.350Z,51.43
2018-01-20T22:15:16.968Z,51.35
2018-01-20T22:17:46.390Z,51.32
2018-01-20T22:20:15.993Z,51.36
2018-01-20T22:22:45.452Z,51.37
2018-01-20T22:25:17.547Z,51.38
2018-01-20T22:27:47.151Z,51.39
2018-01-20T22:30:20.237Z,51.29
2018-01-20T22:32:49.806Z,51.34
2018-01-20T22:35:19.014Z,51.31
2018-01-20T22:37:48.416Z,51.38
2018-01-20T22:40:20.819Z,51.48
2018-01-20T22:42:50.922Z,52.25
2018-01-20T22:45:20.042Z,52.17
2018-01-20T22:47:53.316Z,52.15
2018-01-20T22:50:23.258Z,51.93
2018-01-20T22:52:52.045Z,52.13
2018-01-20T22:55:22.411Z,52.03
2018-01-20T22:57:51.219Z,51.90
2018-01-20T23:00:20.338Z,51.92
2018-01-20T23:02:53.454Z,52.28
2018-01-20T23:05:22.989Z,51.99
2018-01-20T23:07:52.341Z,51.83
2018-01-20T23:10:21.948Z,51.80
2018-01-20T23:12:53.080Z,51.81
2018-01-20T23:15:22.068Z,51.75
2018-01-20T23:17:51.215Z,51.67
2018-01-20T23:20:22.634Z,51.63
2018-01-20T23:22:52.147Z,51.53
2018-01-20T23:25:22.279Z,51.50
2018-01-20T23:27:54.386Z,51.51
2018-01-20T23:30:22.756Z,51.53
2018-01-20T23:32:55.396Z,51.62
2018-01-20T23:35:24.502Z,51.59
2018-01-20T23:37:52.646Z,51.64
2018-01-20T23:40:23.602Z,51.59
2018-01-20T23:42:51.969Z,51.54
2018-01-20T23:45:20.664Z,51.56
2018-01-20T23:47:48.607Z,51.55
2018-01-20T23:50:17.719Z,51.48
2018-01-20T23:52:46.420Z,51.50
2018-01-20T23:55:15.705Z,51.65
2018-01-20T23:57:43.475Z,51.61
